sensor_id;sensor_type;location;lat;lon;timestamp;temperature;humidity
6536;DHT22;34330;52.08032700;5.40923460;2023-02-15T00:01:15;6.80;79.50
6536;DHT22;34330;52.08032700;5.40923460;2023-02-15T00:03:43;6.90;79.50
6536;DHT22;34330;52.08032700;5.40923460;2023-02-15T00:06:12;6.80;79.40
6536;DHT22;34330;52.08032700;5.40923460;2023-02-15T00:08:40;6.80;79.50
6536;DHT22;34330;52.08032700;5.40923460;2023-02-15T00:11:09;6.70;79.50
6536;DHT22;34330;52.08032700;5.40923460;2023-02-15T00:13:38;6.70;79.70
6536;DHT22;34330;52.08032700;5.40923460;2023-02-15T00:16:10;6.70;79.70
6536;DHT22;34330;52.08032700;5.40923460;2023-02-15T00:18:39;6.70;79.90
6536;DHT22;34330;52.08032700;5.40923460;2023-02-15T00:21:08;6.70;79.90
6536;DHT22;34330;52.08032700;5.40923460;2023-02-15T00:23:38;6.70;79.90
6536;DHT22;34330;52.08032700;5.40923460;2023-02-15T00:26:07;6.70;79.70
6536;DHT22;34330;52.08032700;5.40923460;2023-02-15T00:28:35;6.60;79.90
6536;DHT22;34330;52.08032700;5.40923460;2023-02-15T00:31:04;6.60;79.90
6536;DHT22;34330;52.08032700;5.40923460;2023-02-15T00:33:33;6.60;80.00
6536;DHT22;34330;52.08032700;5.40923460;2023-02-15T00:36:01;6.60;80.10
6536;DHT22;34330;52.08032700;5.40923460;2023-02-15T00:38:31;6.60;80.10
6536;DHT22;34330;52.08032700;5.40923460;2023-02-15T00:41:01;6.50;79.80
6536;DHT22;34330;52.08032700;5.40923460;2023-02-15T00:43:31;6.50;79.70
6536;DHT22;34330;52.08032700;5.40923460;2023-02-15T00:46:00;6.50;79.60
6536;DHT22;34330;52.08032700;5.40923460;2023-02-15T00:48:29;6.50;79.60
6536;DHT22;34330;52.08032700;5.40923460;2023-02-15T00:50:58;6.40;79.40
6536;DHT22;34330;52.08032700;5.40923460;2023-02-15T00:53:28;6.40;79.50
6536;DHT22;34330;52.08032700;5.40923460;2023-02-15T00:55:57;7.50;80.60
6536;DHT22;34330;52.08032700;5.40923460;2023-02-15T00:58:26;6.30;79.60
6536;DHT22;34330;52.08032700;5.40923460;2023-02-15T01:00:54;6.30;79.40
6536;DHT22;34330;52.08032700;5.40923460;2023-02-15T01:03:22;6.30;79.30
6536;DHT22;34330;52.08032700;5.40923460;2023-02-15T01:05:50;6.30;79.50
6536;DHT22;34330;52.08032700;5.40923460;2023-02-15T01:08:18;6.20;79.50
6536;DHT22;34330;52.08032700;5.40923460;2023-02-15T01:10:47;6.20;79.50
6536;DHT22;34330;52.08032700;5.40923460;2023-02-15T01:13:16;6.20;79.60
6536;DHT22;34330;52.08032700;5.40923460;2023-02-15T01:15:46;6.10;79.40
6536;DHT22;34330;52.08032700;5.40923460;2023-02-15T01:18:19;6.10;79.60
6536;DHT22;34330;52.08032700;5.40923460;2023-02-15T01:20:47;6.10;79.50
6536;DHT22;34330;52.08032700;5.40923460;2023-02-15T01:23:15;6.00;79.40
6536;DHT22;34330;52.08032700;5.40923460;2023-02-15T01:25:43;6.00;79.40
6536;DHT22;34330;52.08032700;5.40923460;2023-02-15T01:28:12;6.10;79.50
6536;DHT22;34330;52.08032700;5.40923460;2023-02-15T01:30:45;6.00;79.20
6536;DHT22;34330;52.08032700;5.40923460;2023-02-15T01:33:13;5.90;79.10
6536;DHT22;34330;52.08032700;5.40923460;2023-02-15T01:35:47;5.90;79.30
6536;DHT22;34330;52.08032700;5.40923460;2023-02-15T01:38:15;5.90;79.50
6536;DHT22;34330;52.08032700;5.40923460;2023-02-15T01:40:43;6.00;79.90
6536;DHT22;34330;52.08032700;5.40923460;2023-02-15T01:43:11;5.80;79.80
6536;DHT22;34330;52.08032700;5.40923460;2023-02-15T01:45:40;5.80;79.90
6536;DHT22;34330;52.08032700;5.40923460;2023-02-15T01:48:19;5.80;79.90
6536;DHT22;34330;52.08032700;5.40923460;2023-02-15T01:50:51;5.80;80.20
6536;DHT22;34330;52.08032700;5.40923460;2023-02-15T01:53:24;5.80;80.30
6536;DHT22;34330;52.08032700;5.40923460;2023-02-15T01:55:55;5.70;80.30
6536;DHT22;34330;52.08032700;5.40923460;2023-02-15T01:58:27;5.70;80.20
6536;DHT22;34330;52.08032700;5.40923460;2023-02-15T02:00:58;5.70;80.30
6536;DHT22;34330;52.08032700;5.40923460;2023-02-15T02:03:34;5.70;80.10
6536;DHT22;34330;52.08032700;5.40923460;2023-02-15T02:06:06;5.70;80.40
6536;DHT22;34330;52.08032700;5.40923460;2023-02-15T02:08:34;5.60;80.30
6536;DHT22;34330;52.08032700;5.40923460;2023-02-15T02:11:02;5.60;80.00
6536;DHT22;34330;52.08032700;5.40923460;2023-02-15T02:13:30;5.70;80.30
6536;DHT22;34330;52.08032700;5.40923460;2023-02-15T02:16:02;5.60;80.00
6536;DHT22;34330;52.08032700;5.40923460;2023-02-15T02:18:41;5.60;80.30
6536;DHT22;34330;52.08032700;5.40923460;2023-02-15T02:21:45;5.60;80.50
6536;DHT22;34330;52.08032700;5.40923460;2023-02-15T02:24:43;5.60;81.40
6536;DHT22;34330;52.08032700;5.40923460;2023-02-15T02:27:29;5.60;80.70
6536;DHT22;34330;52.08032700;5.40923460;2023-02-15T02:30:34;5.50;80.50
6536;DHT22;34330;52.08032700;5.40923460;2023-02-15T02:33:27;5.50;80.50
6536;DHT22;34330;52.08032700;5.40923460;2023-02-15T02:36:03;5.50;80.50
6536;DHT22;34330;52.08032700;5.40923460;2023-02-15T02:38:39;5.50;80.60
6536;DHT22;34330;52.08032700;5.40923460;2023-02-15T02:41:16;5.50;80.70
6536;DHT22;34330;52.08032700;5.40923460;2023-02-15T02:43:50;5.40;80.60
6536;DHT22;34330;52.08032700;5.40923460;2023-02-15T02:46:24;5.40;80.60
6536;DHT22;34330;52.08032700;5.40923460;2023-02-15T02:48:55;5.40;80.60
6536;DHT22;34330;52.08032700;5.40923460;2023-02-15T02:51:23;5.40;80.70
6536;DHT22;34330;52.08032700;5.40923460;2023-02-15T02:53:53;5.40;80.20
6536;DHT22;34330;52.08032700;5.40923460;2023-02-15T02:56:28;5.30;80.60
6536;DHT22;34330;52.08032700;5.40923460;2023-02-15T02:58:59;5.30;80.70
6536;DHT22;34330;52.08032700;5.40923460;2023-02-15T03:01:32;6.40;81.70
6536;DHT22;34330;52.08032700;5.40923460;2023-02-15T03:04:07;5.30;80.80
6536;DHT22;34330;52.08032700;5.40923460;2023-02-15T03:06:39;5.30;80.80
6536;DHT22;34330;52.08032700;5.40923460;2023-02-15T03:09:10;5.20;80.70
6536;DHT22;34330;52.08032700;5.40923460;2023-02-15T03:11:43;5.20;80.70
6536;DHT22;34330;52.08032700;5.40923460;2023-02-15T03:14:12;5.20;80.70
6536;DHT22;34330;52.08032700;5.40923460;2023-02-15T03:16:43;5.20;80.60
6536;DHT22;34330;52.08032700;5.40923460;2023-02-15T03:19:20;5.20;80.50
6536;DHT22;34330;52.08032700;5.40923460;2023-02-15T03:21:52;5.20;80.50
6536;DHT22;34330;52.08032700;5.40923460;2023-02-15T03:24:33;5.10;80.40
6536;DHT22;34330;52.08032700;5.40923460;2023-02-15T03:27:04;5.10;80.50
6536;DHT22;34330;52.08032700;5.40923460;2023-02-15T03:29:35;5.10;80.50
6536;DHT22;34330;52.08032700;5.40923460;2023-02-15T03:32:07;5.10;80.70
6536;DHT22;34330;52.08032700;5.40923460;2023-02-15T03:34:37;5.10;80.80
6536;DHT22;34330;52.08032700;5.40923460;2023-02-15T03:37:10;5.00;80.50
6536;DHT22;34330;52.08032700;5.40923460;2023-02-15T03:39:45;5.00;80.50
6536;DHT22;34330;52.08032700;5.40923460;2023-02-15T03:42:19;5.40;80.70
6536;DHT22;34330;52.08032700;5.40923460;2023-02-15T03:44:54;5.00;80.50
6536;DHT22;34330;52.08032700;5.40923460;2023-02-15T03:47:27;5.00;80.50
6536;DHT22;34330;52.08032700;5.40923460;2023-02-15T03:50:05;5.10;80.70
6536;DHT22;34330;52.08032700;5.40923460;2023-02-15T03:52:55;4.90;80.40
6536;DHT22;34330;52.08032700;5.40923460;2023-02-15T03:55:23;4.90;80.70
6536;DHT22;34330;52.08032700;5.40923460;2023-02-15T03:57:52;4.90;80.60
6536;DHT22;34330;52.08032700;5.40923460;2023-02-15T04:00:42;4.90;80.70
6536;DHT22;34330;52.08032700;5.40923460;2023-02-15T04:03:35;4.90;80.70
6536;DHT22;34330;52.08032700;5.40923460;2023-02-15T04:06:07;4.80;80.70
6536;DHT22;34330;52.08032700;5.40923460;2023-02-15T04:08:35;4.80;81.30
6536;DHT22;34330;52.08032700;5.40923460;2023-02-15T04:11:21;4.80;80.70
6536;DHT22;34330;52.08032700;5.40923460;2023-02-15T04:13:48;4.80;80.60
6536;DHT22;34330;52.08032700;5.40923460;2023-02-15T04:16:22;4.80;80.60
6536;DHT22;34330;52.08032700;5.40923460;2023-02-15T04:18:49;4.80;80.40
6536;DHT22;34330;52.08032700;5.40923460;2023-02-15T04:21:36;4.80;80.60
6536;DHT22;34330;52.08032700;5.40923460;2023-02-15T04:24:21;4.70;80.60
6536;DHT22;34330;52.08032700;5.40923460;2023-02-15T04:27:07;4.70;80.60
6536;DHT22;34330;52.08032700;5.40923460;2023-02-15T04:29:35;4.70;80.50
6536;DHT22;34330;52.08032700;5.40923460;2023-02-15T04:32:06;4.70;80.40
6536;DHT22;34330;52.08032700;5.40923460;2023-02-15T04:34:34;6.80;82.50
6536;DHT22;34330;52.08032700;5.40923460;2023-02-15T04:37:05;4.60;80.60
6536;DHT22;34330;52.08032700;5.40923460;2023-02-15T04:39:33;7.30;83.20
6536;DHT22;34330;52.08032700;5.40923460;2023-02-15T04:42:01;4.60;80.60
6536;DHT22;34330;52.08032700;5.40923460;2023-02-15T04:44:30;4.60;80.60
6536;DHT22;34330;52.08032700;5.40923460;2023-02-15T04:46:58;4.60;80.60
6536;DHT22;34330;52.08032700;5.40923460;2023-02-15T04:49:26;4.60;80.70
6536;DHT22;34330;52.08032700;5.40923460;2023-02-15T04:51:53;4.60;80.80
6536;DHT22;34330;52.08032700;5.40923460;2023-02-15T04:54:23;4.60;80.80
6536;DHT22;34330;52.08032700;5.40923460;2023-02-15T04:56:51;4.60;80.90
6536;DHT22;34330;52.08032700;5.40923460;2023-02-15T04:59:21;6.70;82.60
6536;DHT22;34330;52.08032700;5.40923460;2023-02-15T05:01:49;4.50;81.00
6536;DHT22;34330;52.08032700;5.40923460;2023-02-15T05:04:17;4.50;81.20
6536;DHT22;34330;52.08032700;5.40923460;2023-02-15T05:06:45;4.50;81.30
6536;DHT22;34330;52.08032700;5.40923460;2023-02-15T05:09:15;4.50;81.30
6536;DHT22;34330;52.08032700;5.40923460;2023-02-15T05:11:46;4.50;81.40
6536;DHT22;34330;52.08032700;5.40923460;2023-02-15T05:14:14;4.50;81.40
6536;DHT22;34330;52.08032700;5.40923460;2023-02-15T05:16:42;4.50;81.50
6536;DHT22;34330;52.08032700;5.40923460;2023-02-15T05:19:10;4.50;81.50
6536;DHT22;34330;52.08032700;5.40923460;2023-02-15T05:21:38;4.50;81.60
6536;DHT22;34330;52.08032700;5.40923460;2023-02-15T05:24:06;4.80;81.90
6536;DHT22;34330;52.08032700;5.40923460;2023-02-15T05:26:56;4.50;81.60
6536;DHT22;34330;52.08032700;5.40923460;2023-02-15T05:29:41;4.50;81.50
6536;DHT22;34330;52.08032700;5.40923460;2023-02-15T05:32:09;4.40;81.40
6536;DHT22;34330;52.08032700;5.40923460;2023-02-15T05:34:37;4.40;81.40
6536;DHT22;34330;52.08032700;5.40923460;2023-02-15T05:37:05;4.90;81.80
6536;DHT22;34330;52.08032700;5.40923460;2023-02-15T05:39:34;4.40;81.30
6536;DHT22;34330;52.08032700;5.40923460;2023-02-15T05:42:06;4.30;81.50
6536;DHT22;34330;52.08032700;5.40923460;2023-02-15T05:44:34;4.40;81.00
6536;DHT22;34330;52.08032700;5.40923460;2023-02-15T05:47:01;4.40;81.30
6536;DHT22;34330;52.08032700;5.40923460;2023-02-15T05:49:34;4.30;81.30
6536;DHT22;34330;52.08032700;5.40923460;2023-02-15T05:52:03;4.30;81.60
6536;DHT22;34330;52.08032700;5.40923460;2023-02-15T05:54:31;4.30;81.30
6536;DHT22;34330;52.08032700;5.40923460;2023-02-15T05:56:59;4.30;81.20
6536;DHT22;34330;52.08032700;5.40923460;2023-02-15T05:59:28;4.30;81.30
6536;DHT22;34330;52.08032700;5.40923460;2023-02-15T06:01:56;4.30;81.40
6536;DHT22;34330;52.08032700;5.40923460;2023-02-15T06:04:24;4.30;81.40
6536;DHT22;34330;52.08032700;5.40923460;2023-02-15T06:06:52;4.20;81.30
6536;DHT22;34330;52.08032700;5.40923460;2023-02-15T06:09:19;4.20;81.20
6536;DHT22;34330;52.08032700;5.40923460;2023-02-15T06:11:47;4.40;81.30
6536;DHT22;34330;52.08032700;5.40923460;2023-02-15T06:14:16;4.20;81.30
6536;DHT22;34330;52.08032700;5.40923460;2023-02-15T06:16:45;4.60;81.80
6536;DHT22;34330;52.08032700;5.40923460;2023-02-15T06:19:16;4.60;81.80
6536;DHT22;34330;52.08032700;5.40923460;2023-02-15T06:21:44;4.20;81.40
6536;DHT22;34330;52.08032700;5.40923460;2023-02-15T06:24:12;6.00;83.10
6536;DHT22;34330;52.08032700;5.40923460;2023-02-15T06:26:40;4.10;81.50
6536;DHT22;34330;52.08032700;5.40923460;2023-02-15T06:29:08;4.10;81.60
6536;DHT22;34330;52.08032700;5.40923460;2023-02-15T06:31:36;4.10;81.80
6536;DHT22;34330;52.08032700;5.40923460;2023-02-15T06:34:08;4.40;82.20
6536;DHT22;34330;52.08032700;5.40923460;2023-02-15T06:36:36;4.10;81.90
6536;DHT22;34330;52.08032700;5.40923460;2023-02-15T06:39:04;4.10;81.90
6536;DHT22;34330;52.08032700;5.40923460;2023-02-15T06:41:32;4.10;81.80
6536;DHT22;34330;52.08032700;5.40923460;2023-02-15T06:44:00;4.10;82.00
6536;DHT22;34330;52.08032700;5.40923460;2023-02-15T06:46:28;4.10;82.20
6536;DHT22;34330;52.08032700;5.40923460;2023-02-15T06:48:56;4.10;82.30
6536;DHT22;34330;52.08032700;5.40923460;2023-02-15T06:51:26;4.10;82.30
6536;DHT22;34330;52.08032700;5.40923460;2023-02-15T06:53:53;5.00;82.90
6536;DHT22;34330;52.08032700;5.40923460;2023-02-15T06:56:21;4.00;82.30
6536;DHT22;34330;52.08032700;5.40923460;2023-02-15T06:58:50;4.10;82.20
6536;DHT22;34330;52.08032700;5.40923460;2023-02-15T07:01:19;4.00;82.20
6536;DHT22;34330;52.08032700;5.40923460;2023-02-15T07:03:47;4.00;81.90
6536;DHT22;34330;52.08032700;5.40923460;2023-02-15T07:06:15;4.20;82.20
6536;DHT22;34330;52.08032700;5.40923460;2023-02-15T07:08:47;4.00;82.20
6536;DHT22;34330;52.08032700;5.40923460;2023-02-15T07:11:15;4.00;82.40
6536;DHT22;34330;52.08032700;5.40923460;2023-02-15T07:14:12;4.00;82.60
6536;DHT22;34330;52.08032700;5.40923460;2023-02-15T07:16:40;4.00;82.70
6536;DHT22;34330;52.08032700;5.40923460;2023-02-15T07:19:08;4.00;82.70
6536;DHT22;34330;52.08032700;5.40923460;2023-02-15T07:21:36;4.00;82.70
6536;DHT22;34330;52.08032700;5.40923460;2023-02-15T07:24:06;4.00;82.90
6536;DHT22;34330;52.08032700;5.40923460;2023-02-15T07:26:34;4.00;82.70
6536;DHT22;34330;52.08032700;5.40923460;2023-02-15T07:29:02;4.00;82.90
6536;DHT22;34330;52.08032700;5.40923460;2023-02-15T07:31:31;4.00;82.80
6536;DHT22;34330;52.08032700;5.40923460;2023-02-15T07:33:59;4.10;83.00
6536;DHT22;34330;52.08032700;5.40923460;2023-02-15T07:36:27;4.10;83.10
6536;DHT22;34330;52.08032700;5.40923460;2023-02-15T07:38:55;4.10;83.10
6536;DHT22;34330;52.08032700;5.40923460;2023-02-15T07:41:24;4.10;83.30
6536;DHT22;34330;52.08032700;5.40923460;2023-02-15T07:43:52;4.10;83.40
6536;DHT22;34330;52.08032700;5.40923460;2023-02-15T07:46:20;4.10;83.20
6536;DHT22;34330;52.08032700;5.40923460;2023-02-15T07:48:48;4.20;83.50
6536;DHT22;34330;52.08032700;5.40923460;2023-02-15T07:51:16;4.20;83.60
6536;DHT22;34330;52.08032700;5.40923460;2023-02-15T07:53:47;4.20;83.70
6536;DHT22;34330;52.08032700;5.40923460;2023-02-15T07:56:15;4.30;83.80
6536;DHT22;34330;52.08032700;5.40923460;2023-02-15T07:58:44;4.30;84.30
6536;DHT22;34330;52.08032700;5.40923460;2023-02-15T08:01:20;4.30;84.50
6536;DHT22;34330;52.08032700;5.40923460;2023-02-15T08:03:48;4.30;84.60
6536;DHT22;34330;52.08032700;5.40923460;2023-02-15T08:06:16;4.40;85.30
6536;DHT22;34330;52.08032700;5.40923460;2023-02-15T08:08:47;4.50;85.90
6536;DHT22;34330;52.08032700;5.40923460;2023-02-15T08:11:18;4.50;86.50
6536;DHT22;34330;52.08032700;5.40923460;2023-02-15T08:14:04;4.60;87.10
6536;DHT22;34330;52.08032700;5.40923460;2023-02-15T08:16:35;4.60;87.30
6536;DHT22;34330;52.08032700;5.40923460;2023-02-15T08:19:05;4.70;87.80
6536;DHT22;34330;52.08032700;5.40923460;2023-02-15T08:21:35;4.80;88.10
6536;DHT22;34330;52.08032700;5.40923460;2023-02-15T08:24:07;4.90;88.40
6536;DHT22;34330;52.08032700;5.40923460;2023-02-15T08:26:36;4.90;88.50
6536;DHT22;34330;52.08032700;5.40923460;2023-02-15T08:29:09;5.00;88.90
6536;DHT22;34330;52.08032700;5.40923460;2023-02-15T08:31:37;5.10;89.00
6536;DHT22;34330;52.08032700;5.40923460;2023-02-15T08:34:08;5.20;89.20
6536;DHT22;34330;52.08032700;5.40923460;2023-02-15T08:36:36;5.20;89.30
6536;DHT22;34330;52.08032700;5.40923460;2023-02-15T08:39:06;5.30;89.40
6536;DHT22;34330;52.08032700;5.40923460;2023-02-15T08:41:35;5.40;89.80
6536;DHT22;34330;52.08032700;5.40923460;2023-02-15T08:44:05;5.50;89.90
6536;DHT22;34330;52.08032700;5.40923460;2023-02-15T08:46:37;5.60;90.00
6536;DHT22;34330;52.08032700;5.40923460;2023-02-15T08:49:06;5.70;90.10
6536;DHT22;34330;52.08032700;5.40923460;2023-02-15T08:51:37;5.80;89.90
6536;DHT22;34330;52.08032700;5.40923460;2023-02-15T08:54:06;5.90;90.10
6536;DHT22;34330;52.08032700;5.40923460;2023-02-15T08:56:37;6.00;90.20
6536;DHT22;34330;52.08032700;5.40923460;2023-02-15T08:59:06;6.00;90.20
6536;DHT22;34330;52.08032700;5.40923460;2023-02-15T09:01:35;6.10;90.20
6536;DHT22;34330;52.08032700;5.40923460;2023-02-15T09:04:05;6.20;90.30
6536;DHT22;34330;52.08032700;5.40923460;2023-02-15T09:06:36;6.30;90.30
6536;DHT22;34330;52.08032700;5.40923460;2023-02-15T09:09:08;6.40;90.30
6536;DHT22;34330;52.08032700;5.40923460;2023-02-15T09:11:37;6.50;90.60
6536;DHT22;34330;52.08032700;5.40923460;2023-02-15T09:14:07;6.60;90.20
6536;DHT22;34330;52.08032700;5.40923460;2023-02-15T09:16:38;6.70;90.10
6536;DHT22;34330;52.08032700;5.40923460;2023-02-15T09:19:06;6.80;90.00
6536;DHT22;34330;52.08032700;5.40923460;2023-02-15T09:21:36;6.90;89.90
6536;DHT22;34330;52.08032700;5.40923460;2023-02-15T09:24:06;6.90;89.80
6536;DHT22;34330;52.08032700;5.40923460;2023-02-15T09:26:37;7.00;89.70
6536;DHT22;34330;52.08032700;5.40923460;2023-02-15T09:29:06;7.10;89.70
6536;DHT22;34330;52.08032700;5.40923460;2023-02-15T09:31:39;7.20;89.50
6536;DHT22;34330;52.08032700;5.40923460;2023-02-15T09:34:11;7.20;89.50
6536;DHT22;34330;52.08032700;5.40923460;2023-02-15T09:36:40;7.30;89.50
6536;DHT22;34330;52.08032700;5.40923460;2023-02-15T09:39:10;7.40;89.30
6536;DHT22;34330;52.08032700;5.40923460;2023-02-15T09:42:04;7.50;89.50
6536;DHT22;34330;52.08032700;5.40923460;2023-02-15T09:44:48;7.50;89.60
6536;DHT22;34330;52.08032700;5.40923460;2023-02-15T09:47:41;7.60;89.40
6536;DHT22;34330;52.08032700;5.40923460;2023-02-15T09:50:17;7.70;89.30
6536;DHT22;34330;52.08032700;5.40923460;2023-02-15T09:53:00;7.80;89.20
6536;DHT22;34330;52.08032700;5.40923460;2023-02-15T09:55:43;7.90;89.10
6536;DHT22;34330;52.08032700;5.40923460;2023-02-15T09:58:22;8.10;89.10
6536;DHT22;34330;52.08032700;5.40923460;2023-02-15T10:00:59;8.00;88.80
6536;DHT22;34330;52.08032700;5.40923460;2023-02-15T10:03:52;8.10;88.70
6536;DHT22;34330;52.08032700;5.40923460;2023-02-15T10:06:36;8.10;88.60
6536;DHT22;34330;52.08032700;5.40923460;2023-02-15T10:09:24;8.20;88.30
6536;DHT22;34330;52.08032700;5.40923460;2023-02-15T10:12:14;8.30;89.00
6536;DHT22;34330;52.08032700;5.40923460;2023-02-15T10:15:06;8.40;88.10
6536;DHT22;34330;52.08032700;5.40923460;2023-02-15T10:17:53;8.40;88.10
6536;DHT22;34330;52.08032700;5.40923460;2023-02-15T10:20:32;8.50;88.00
6536;DHT22;34330;52.08032700;5.40923460;2023-02-15T10:23:20;8.60;88.00
6536;DHT22;34330;52.08032700;5.40923460;2023-02-15T10:25:53;8.70;88.10
6536;DHT22;34330;52.08032700;5.40923460;2023-02-15T10:28:29;8.80;88.00
6536;DHT22;34330;52.08032700;5.40923460;2023-02-15T10:31:07;8.90;87.90
6536;DHT22;34330;52.08032700;5.40923460;2023-02-15T10:33:40;8.90;88.10
6536;DHT22;34330;52.08032700;5.40923460;2023-02-15T10:36:23;9.10;88.20
6536;DHT22;34330;52.08032700;5.40923460;2023-02-15T10:39:02;9.20;87.80
6536;DHT22;34330;52.08032700;5.40923460;2023-02-15T10:41:40;9.30;87.50
6536;DHT22;34330;52.08032700;5.40923460;2023-02-15T10:44:33;9.40;87.30
6536;DHT22;34330;52.08032700;5.40923460;2023-02-15T10:47:20;10.40;87.30
6536;DHT22;34330;52.08032700;5.40923460;2023-02-15T10:50:05;9.60;87.40
6536;DHT22;34330;52.08032700;5.40923460;2023-02-15T10:52:44;9.70;87.20
6536;DHT22;34330;52.08032700;5.40923460;2023-02-15T10:55:20;9.80;87.20
6536;DHT22;34330;52.08032700;5.40923460;2023-02-15T10:57:59;9.90;87.00
6536;DHT22;34330;52.08032700;5.40923460;2023-02-15T11:00:35;10.00;85.50
6536;DHT22;34330;52.08032700;5.40923460;2023-02-15T11:06:03;10.10;85.20
6536;DHT22;34330;52.08032700;5.40923460;2023-02-15T11:08:37;10.30;84.90
6536;DHT22;34330;52.08032700;5.40923460;2023-02-15T11:11:08;10.40;85.30
6536;DHT22;34330;52.08032700;5.40923460;2023-02-15T11:13:39;10.50;85.30
6536;DHT22;34330;52.08032700;5.40923460;2023-02-15T11:16:12;10.50;85.30
6536;DHT22;34330;52.08032700;5.40923460;2023-02-15T11:18:48;10.70;85.10
6536;DHT22;34330;52.08032700;5.40923460;2023-02-15T11:21:20;10.80;85.00
6536;DHT22;34330;52.08032700;5.40923460;2023-02-15T11:23:51;10.80;84.90
6536;DHT22;34330;52.08032700;5.40923460;2023-02-15T11:26:24;10.90;84.50
6536;DHT22;34330;52.08032700;5.40923460;2023-02-15T11:28:57;11.00;84.30
6536;DHT22;34330;52.08032700;5.40923460;2023-02-15T11:31:32;11.10;84.20
6536;DHT22;34330;52.08032700;5.40923460;2023-02-15T11:34:13;11.20;84.00
6536;DHT22;34330;52.08032700;5.40923460;2023-02-15T11:36:47;11.30;83.80
6536;DHT22;34330;52.08032700;5.40923460;2023-02-15T11:39:18;11.40;83.80
6536;DHT22;34330;52.08032700;5.40923460;2023-02-15T11:41:50;11.50;83.40
6536;DHT22;34330;52.08032700;5.40923460;2023-02-15T11:44:23;11.50;83.00
6536;DHT22;34330;52.08032700;5.40923460;2023-02-15T11:46:52;11.60;83.40
6536;DHT22;34330;52.08032700;5.40923460;2023-02-15T11:49:29;11.70;83.20
6536;DHT22;34330;52.08032700;5.40923460;2023-02-15T11:51:58;11.80;83.10
6536;DHT22;34330;52.08032700;5.40923460;2023-02-15T11:54:31;11.90;82.80
6536;DHT22;34330;52.08032700;5.40923460;2023-02-15T11:57:04;12.00;82.60
6536;DHT22;34330;52.08032700;5.40923460;2023-02-15T11:59:40;12.10;82.20
6536;DHT22;34330;52.08032700;5.40923460;2023-02-15T12:02:15;12.10;82.20
6536;DHT22;34330;52.08032700;5.40923460;2023-02-15T12:04:48;12.20;82.30
6536;DHT22;34330;52.08032700;5.40923460;2023-02-15T12:07:20;12.30;82.40
6536;DHT22;34330;52.08032700;5.40923460;2023-02-15T12:09:52;12.40;82.00
6536;DHT22;34330;52.08032700;5.40923460;2023-02-15T12:12:25;12.40;82.10
6536;DHT22;34330;52.08032700;5.40923460;2023-02-15T12:14:54;12.50;82.10
6536;DHT22;34330;52.08032700;5.40923460;2023-02-15T12:17:24;12.60;82.50
6536;DHT22;34330;52.08032700;5.40923460;2023-02-15T12:19:55;12.70;82.70
6536;DHT22;34330;52.08032700;5.40923460;2023-02-15T12:22:27;12.80;82.20
6536;DHT22;34330;52.08032700;5.40923460;2023-02-15T12:25:00;12.80;81.80
6536;DHT22;34330;52.08032700;5.40923460;2023-02-15T12:27:30;12.90;81.50
6536;DHT22;34330;52.08032700;5.40923460;2023-02-15T12:30:03;13.00;81.30
6536;DHT22;34330;52.08032700;5.40923460;2023-02-15T12:32:34;13.10;81.10
6536;DHT22;34330;52.08032700;5.40923460;2023-02-15T12:35:09;13.20;80.80
6536;DHT22;34330;52.08032700;5.40923460;2023-02-15T12:37:52;13.30;80.70
6536;DHT22;34330;52.08032700;5.40923460;2023-02-15T12:40:25;13.40;80.40
6536;DHT22;34330;52.08032700;5.40923460;2023-02-15T12:42:57;13.40;80.30
6536;DHT22;34330;52.08032700;5.40923460;2023-02-15T12:45:28;13.60;80.20
6536;DHT22;34330;52.08032700;5.40923460;2023-02-15T12:48:14;13.60;79.90
6536;DHT22;34330;52.08032700;5.40923460;2023-02-15T12:50:44;13.60;79.20
6536;DHT22;34330;52.08032700;5.40923460;2023-02-15T12:53:18;13.70;79.80
6536;DHT22;34330;52.08032700;5.40923460;2023-02-15T12:55:52;13.70;79.60
6536;DHT22;34330;52.08032700;5.40923460;2023-02-15T12:58:21;13.80;79.60
6536;DHT22;34330;52.08032700;5.40923460;2023-02-15T13:01:11;13.90;79.80
6536;DHT22;34330;52.08032700;5.40923460;2023-02-15T13:03:55;13.90;79.50
6536;DHT22;34330;52.08032700;5.40923460;2023-02-15T13:06:24;14.00;79.30
6536;DHT22;34330;52.08032700;5.40923460;2023-02-15T13:08:54;14.10;79.40
6536;DHT22;34330;52.08032700;5.40923460;2023-02-15T13:11:27;14.10;79.20
6536;DHT22;34330;52.08032700;5.40923460;2023-02-15T13:14:02;14.10;78.80
6536;DHT22;34330;52.08032700;5.40923460;2023-02-15T13:16:33;14.10;78.90
6536;DHT22;34330;52.08032700;5.40923460;2023-02-15T13:19:08;14.20;78.90
6536;DHT22;34330;52.08032700;5.40923460;2023-02-15T13:21:41;14.20;78.00
6536;DHT22;34330;52.08032700;5.40923460;2023-02-15T13:24:17;14.30;78.50
6536;DHT22;34330;52.08032700;5.40923460;2023-02-15T13:26:48;14.30;78.50
6536;DHT22;34330;52.08032700;5.40923460;2023-02-15T13:29:21;14.30;78.40
6536;DHT22;34330;52.08032700;5.40923460;2023-02-15T13:31:53;14.40;77.90
6536;DHT22;34330;52.08032700;5.40923460;2023-02-15T13:34:25;14.40;77.80
6536;DHT22;34330;52.08032700;5.40923460;2023-02-15T13:37:01;14.40;77.90
6536;DHT22;34330;52.08032700;5.40923460;2023-02-15T13:39:36;14.50;77.80
6536;DHT22;34330;52.08032700;5.40923460;2023-02-15T13:42:17;14.50;77.40
6536;DHT22;34330;52.08032700;5.40923460;2023-02-15T13:45:09;14.50;77.00
6536;DHT22;34330;52.08032700;5.40923460;2023-02-15T13:47:45;14.60;77.10
6536;DHT22;34330;52.08032700;5.40923460;2023-02-15T13:50:25;14.60;78.00
6536;DHT22;34330;52.08032700;5.40923460;2023-02-15T13:53:08;14.60;76.40
6536;DHT22;34330;52.08032700;5.40923460;2023-02-15T13:55:40;14.60;76.20
6536;DHT22;34330;52.08032700;5.40923460;2023-02-15T13:58:43;14.60;76.40
6536;DHT22;34330;52.08032700;5.40923460;2023-02-15T14:01:26;14.60;76.40
6536;DHT22;34330;52.08032700;5.40923460;2023-02-15T14:04:22;14.70;76.70
6536;DHT22;34330;52.08032700;5.40923460;2023-02-15T14:07:08;14.70;76.30
6536;DHT22;34330;52.08032700;5.40923460;2023-02-15T14:09:45;14.70;76.40
6536;DHT22;34330;52.08032700;5.40923460;2023-02-15T14:12:29;14.70;76.10
6536;DHT22;34330;52.08032700;5.40923460;2023-02-15T14:15:10;15.50;77.50
6536;DHT22;34330;52.08032700;5.40923460;2023-02-15T14:17:51;14.70;76.60